TimeCDT,TemperatureF,Dew PointF,Humidity,Sea Level PressureIn,VisibilityMPH,Wind Direction,Wind SpeedMPH,Gust SpeedMPH,PrecipitationIn,Events,Conditions,WindDirDegrees,DateUTC
12:53 AM,57.9,52.0,81,30.10,10.0,NE,6.9,-,N/A,,Overcast,40,2012-10-06 05:53:00
1:46 AM,57.0,51.1,81,30.12,10.0,NNE,6.9,-,N/A,,Overcast,30,2012-10-06 06:46:00
1:53 AM,57.0,51.1,81,30.11,10.0,ENE,9.2,-,N/A,,Overcast,70,2012-10-06 06:53:00
2:44 AM,55.9,50.0,80,30.13,10.0,NE,10.4,-,0.00,,Overcast,50,2012-10-06 07:44:00
2:53 AM,55.9,50.0,80,30.12,10.0,NE,8.1,-,0.00,,Overcast,50,2012-10-06 07:53:00
3:53 AM,54.0,48.9,83,30.12,10.0,East,8.1,-,N/A,,Overcast,90,2012-10-06 08:53:00
4:53 AM,53.1,45.0,74,30.14,10.0,ENE,9.2,-,N/A,,Overcast,60,2012-10-06 09:53:00
5:53 AM,53.1,41.0,64,30.15,10.0,ENE,10.4,-,N/A,,Overcast,60,2012-10-06 10:53:00
6:53 AM,52.0,36.0,54,30.16,10.0,ENE,11.5,-,N/A,,Overcast,60,2012-10-06 11:53:00
7:53 AM,51.1,37.0,59,30.18,10.0,ENE,5.8,-,N/A,,Overcast,70,2012-10-06 12:53:00
8:53 AM,51.1,37.0,59,30.18,10.0,East,6.9,-,0.00,,Overcast,80,2012-10-06 13:53:00
9:53 AM,51.1,37.0,59,30.20,10.0,ENE,10.4,-,N/A,,Overcast,60,2012-10-06 14:53:00
10:53 AM,51.1,37.0,59,30.19,10.0,ENE,10.4,-,N/A,,Overcast,70,2012-10-06 15:53:00
11:53 AM,52.0,37.9,59,30.20,10.0,NE,10.4,-,N/A,,Overcast,50,2012-10-06 16:53:00
12:53 PM,52.0,39.0,61,30.19,10.0,ENE,9.2,-,N/A,,Overcast,60,2012-10-06 17:53:00
1:53 PM,52.0,37.9,59,30.19,10.0,NE,9.2,-,N/A,,Overcast,40,2012-10-06 18:53:00
2:53 PM,53.1,37.9,57,30.16,10.0,ENE,11.5,-,N/A,,Overcast,70,2012-10-06 19:53:00
3:53 PM,51.1,39.9,66,30.17,10.0,NE,9.2,19.6,N/A,,Overcast,40,2012-10-06 20:53:00
4:53 PM,48.9,37.9,66,30.17,10.0,ENE,8.1,-,N/A,,Overcast,70,2012-10-06 21:53:00
5:53 PM,48.0,37.0,66,30.18,10.0,NE,4.6,-,N/A,,Overcast,50,2012-10-06 22:53:00
6:53 PM,46.9,39.0,74,30.19,9.0,NE,4.6,-,0.00,Rain,Light Rain,40,2012-10-06 23:53:00
7:53 PM,46.9,39.0,74,30.21,10.0,North,5.8,-,0.00,,Overcast,350,2012-10-07 00:53:00
8:53 PM,46.9,39.0,74,30.22,10.0,Variable,5.8,-,N/A,,Overcast,0,2012-10-07 01:53:00
9:53 PM,48.0,39.0,71,30.25,10.0,NNE,6.9,-,N/A,,Overcast,30,2012-10-07 02:53:00
10:53 PM,46.9,39.0,74,30.26,10.0,NE,4.6,-,N/A,,Overcast,50,2012-10-07 03:53:00
11:53 PM,46.0,41.0,83,30.25,10.0,Calm,Calm,-,0.00,,Overcast,0,2012-10-07 04:53:00